createdAt,value
2018-03-27T00:00:36.372Z,6.28
2018-03-27T00:01:36.940Z,6.27
2018-03-27T00:02:37.507Z,6.28
2018-03-27T00:03:38.072Z,6.08
2018-03-27T00:04:38.639Z,6.16
2018-03-27T00:05:39.205Z,6.31
2018-03-27T00:06:39.772Z,6.05
2018-03-27T00:07:40.339Z,6.14
2018-03-27T00:08:40.906Z,6.16
2018-03-27T00:09:41.473Z,6.08
2018-03-27T00:10:42.052Z,6.09
2018-03-27T00:11:42.627Z,6.05
2018-03-27T00:12:43.188Z,6.02
2018-03-27T00:13:43.756Z,5.82
2018-03-27T00:14:44.334Z,5.86
2018-03-27T00:15:44.901Z,6.01
2018-03-27T00:16:45.469Z,5.94
2018-03-27T00:17:46.037Z,5.97
2018-03-27T00:18:46.606Z,6.01
2018-03-27T00:19:47.172Z,5.93
2018-03-27T00:20:47.740Z,5.93
2018-03-27T00:21:48.307Z,6.14
2018-03-27T00:22:48.876Z,6.24
2018-03-27T00:23:49.442Z,6.28
2018-03-27T00:24:50.009Z,6.11
2018-03-27T00:25:50.589Z,6.14
2018-03-27T00:26:51.161Z,6.24
2018-03-27T00:27:51.726Z,6.24
2018-03-27T00:28:52.298Z,6.14
2018-03-27T00:29:52.868Z,6.17
2018-03-27T00:30:53.447Z,6.08
2018-03-27T00:31:54.015Z,6.08
2018-03-27T00:32:54.594Z,5.91
2018-03-27T00:33:55.163Z,5.87
2018-03-27T00:34:55.732Z,5.89
2018-03-27T00:35:56.302Z,5.82
2018-03-27T00:36:56.868Z,5.75
2018-03-27T00:37:57.435Z,5.66
2018-03-27T00:38:58.002Z,5.72
2018-03-27T00:39:58.580Z,5.73
2018-03-27T00:40:59.149Z,5.82
2018-03-27T00:41:59.717Z,5.79
2018-03-27T00:43:00.286Z,5.94
2018-03-27T00:44:00.853Z,6.11
2018-03-27T00:45:01.428Z,5.99
2018-03-27T00:46:01.989Z,6.08
2018-03-27T00:47:02.556Z,6.11
2018-03-27T00:48:03.124Z,6.08
2018-03-27T00:49:03.693Z,6.14
2018-03-27T00:50:04.256Z,6.26
2018-03-27T00:51:04.824Z,6.11
2018-03-27T00:52:05.392Z,6.20
2018-03-27T00:53:05.957Z,6.30
2018-03-27T00:54:06.538Z,6.04
2018-03-27T00:55:07.104Z,6.08
2018-03-27T00:56:07.674Z,6.36
2018-03-27T00:57:08.240Z,6.26
2018-03-27T00:58:08.820Z,6.28
2018-03-27T00:59:09.389Z,6.14
2018-03-27T01:00:09.964Z,6.12
2018-03-27T01:01:10.524Z,6.16
2018-03-27T01:02:11.090Z,6.14
2018-03-27T01:03:11.662Z,6.19
2018-03-27T01:04:12.235Z,5.97
2018-03-27T01:05:12.805Z,5.93
2018-03-27T01:06:13.371Z,6.02
2018-03-27T01:07:13.940Z,6.05
2018-03-27T01:08:14.508Z,6.01
2018-03-27T01:09:15.075Z,6.28
2018-03-27T01:10:15.644Z,6.11
2018-03-27T01:11:16.212Z,6.28
2018-03-27T01:12:16.779Z,6.26
2018-03-27T01:13:17.346Z,6.26
2018-03-27T01:14:17.917Z,6.26
2018-03-27T01:15:18.482Z,6.31
2018-03-27T01:16:19.049Z,6.36
2018-03-27T01:17:19.615Z,6.36
2018-03-27T01:18:20.182Z,6.30
2018-03-27T01:19:20.748Z,6.33
2018-03-27T01:20:21.315Z,6.27
2018-03-27T01:21:21.885Z,6.17
2018-03-27T01:22:22.449Z,5.98
2018-03-27T01:23:23.016Z,5.73
2018-03-27T01:24:23.584Z,5.65
2018-03-27T01:25:24.152Z,5.65
2018-03-27T01:26:24.717Z,5.80
2018-03-27T01:27:25.283Z,5.80
2018-03-27T01:28:25.849Z,5.76
2018-03-27T01:29:26.416Z,5.86
2018-03-27T01:30:26.994Z,5.79
2018-03-27T01:31:27.562Z,6.01
2018-03-27T01:32:28.141Z,6.12
2018-03-27T01:33:28.711Z,6.07
2018-03-27T01:34:29.288Z,6.05
2018-03-27T01:35:29.854Z,5.98
2018-03-27T01:36:30.420Z,6.11
2018-03-27T01:37:30.985Z,6.05
2018-03-27T01:38:31.552Z,6.07
2018-03-27T01:39:32.116Z,6.07
2018-03-27T01:40:32.684Z,6.12
2018-03-27T01:41:33.251Z,6.30
2018-03-27T01:42:33.818Z,6.26
2018-03-27T01:43:34.385Z,6.14
2018-03-27T01:44:34.952Z,5.87
2018-03-27T01:45:35.521Z,5.83
2018-03-27T01:46:36.086Z,5.94
2018-03-27T01:47:36.663Z,5.87
2018-03-27T01:48:37.232Z,5.69
2018-03-27T01:49:37.800Z,5.61
2018-03-27T01:50:38.367Z,5.72
2018-03-27T01:51:38.946Z,5.80
2018-03-27T01:52:39.514Z,5.83
2018-03-27T01:53:40.083Z,5.89
2018-03-27T01:54:40.650Z,5.79
2018-03-27T01:55:41.216Z,5.90
2018-03-27T01:56:41.785Z,5.91
2018-03-27T01:57:42.352Z,5.91
2018-03-27T01:58:42.921Z,5.93
2018-03-27T01:59:43.487Z,5.87
2018-03-27T02:00:44.055Z,5.80
2018-03-27T02:01:44.623Z,5.83
2018-03-27T02:02:45.188Z,5.86
2018-03-27T02:03:45.767Z,5.86
2018-03-27T02:04:46.335Z,5.97
2018-03-27T02:05:46.904Z,5.91
2018-03-27T02:06:47.472Z,6.07
2018-03-27T02:07:48.051Z,5.82
2018-03-27T02:08:48.622Z,5.89
2018-03-27T02:09:49.200Z,5.84
2018-03-27T02:10:49.766Z,6.05
2018-03-27T02:11:50.334Z,6.14
2018-03-27T02:12:50.910Z,5.80
2018-03-27T02:13:51.479Z,5.91
2018-03-27T02:14:52.044Z,5.91
2018-03-27T02:15:52.633Z,6.01
2018-03-27T02:16:53.188Z,6.02
2018-03-27T02:17:53.768Z,5.94
2018-03-27T02:18:54.348Z,6.11
2018-03-27T02:19:54.915Z,6.02
2018-03-27T02:20:55.482Z,5.83
2018-03-27T02:21:56.052Z,5.68
2018-03-27T02:22:56.629Z,5.80
2018-03-27T02:23:57.207Z,5.65
2018-03-27T02:24:57.775Z,5.69
2018-03-27T02:25:58.342Z,5.53
2018-03-27T02:26:58.909Z,5.68
2018-03-27T02:27:59.475Z,5.72
2018-03-27T02:29:00.050Z,5.79
2018-03-27T02:30:00.611Z,5.62
2018-03-27T02:31:01.178Z,5.59
2018-03-27T02:32:01.760Z,5.62
2018-03-27T02:33:02.330Z,5.66
2018-03-27T02:34:02.893Z,5.50
2018-03-27T02:35:03.460Z,5.53
2018-03-27T02:36:04.027Z,5.57
2018-03-27T02:37:04.593Z,5.73
2018-03-27T02:38:05.162Z,5.73
2018-03-27T02:39:05.728Z,5.82
2018-03-27T02:40:06.309Z,5.79
2018-03-27T02:41:06.879Z,5.93
2018-03-27T02:42:07.442Z,5.84
2018-03-27T02:43:08.012Z,5.86
2018-03-27T02:44:08.577Z,5.72
2018-03-27T02:45:09.145Z,5.73
2018-03-27T02:46:09.711Z,5.82
2018-03-27T02:47:10.281Z,5.66
2018-03-27T02:48:10.845Z,5.54
2018-03-27T02:49:11.414Z,5.48
2018-03-27T02:50:11.981Z,5.44
2018-03-27T02:51:12.549Z,5.54
2018-03-27T02:52:13.114Z,5.62
2018-03-27T02:53:13.681Z,5.51
2018-03-27T02:54:14.258Z,5.50
2018-03-27T02:55:14.826Z,5.48
2018-03-27T02:56:15.394Z,5.33
2018-03-27T02:57:15.959Z,5.12
2018-03-27T02:58:16.527Z,5.23
2018-03-27T02:59:17.107Z,5.36
2018-03-27T03:00:17.671Z,5.44
2018-03-27T03:01:18.239Z,5.36
2018-03-27T03:02:18.806Z,5.33
2018-03-27T03:03:19.380Z,5.17
2018-03-27T03:04:19.943Z,5.21
2018-03-27T03:05:20.520Z,5.23
2018-03-27T03:06:21.086Z,5.23
2018-03-27T03:07:21.665Z,5.28
2018-03-27T03:08:22.232Z,5.44
2018-03-27T03:09:22.799Z,5.51
2018-03-27T03:10:23.371Z,5.43
2018-03-27T03:11:23.932Z,5.48
2018-03-27T03:12:24.497Z,5.36
2018-03-27T03:13:25.064Z,5.28
2018-03-27T03:14:25.672Z,5.18
2018-03-27T03:15:26.213Z,5.21
2018-03-27T03:16:26.788Z,5.17
2018-03-27T03:17:27.358Z,5.08
2018-03-27T03:18:27.923Z,5.14
2018-03-27T03:19:28.489Z,5.04
2018-03-27T03:20:29.054Z,5.12
2018-03-27T03:21:29.620Z,5.00
2018-03-27T03:22:30.187Z,4.93
2018-03-27T03:23:30.755Z,4.89
2018-03-27T03:24:31.323Z,4.90
2018-03-27T03:25:31.887Z,4.89
2018-03-27T03:26:32.453Z,4.80
2018-03-27T03:27:33.020Z,4.59
2018-03-27T03:28:33.585Z,4.59
2018-03-27T03:29:34.153Z,4.59
2018-03-27T03:30:34.731Z,4.80
2018-03-27T03:31:35.297Z,4.78
2018-03-27T03:32:35.864Z,4.75
2018-03-27T03:33:36.430Z,4.80
2018-03-27T03:34:37.001Z,4.75
2018-03-27T03:35:37.564Z,4.73
2018-03-27T03:36:38.130Z,4.60
2018-03-27T03:37:38.710Z,4.63
2018-03-27T03:38:39.288Z,4.60
2018-03-27T03:39:39.855Z,4.63
2018-03-27T03:40:40.421Z,4.66
2018-03-27T03:41:40.989Z,4.78
2018-03-27T03:42:41.557Z,4.77
2018-03-27T03:43:42.125Z,4.60
2018-03-27T03:44:42.692Z,4.53
2018-03-27T03:45:43.263Z,4.53
2018-03-27T03:46:43.831Z,4.50
2018-03-27T03:47:44.405Z,4.41
2018-03-27T03:48:44.972Z,4.45
2018-03-27T03:49:45.541Z,4.45
2018-03-27T03:50:46.108Z,4.41
2018-03-27T03:51:46.676Z,4.55
2018-03-27T03:52:47.244Z,4.45
2018-03-27T03:53:47.811Z,4.31
2018-03-27T03:54:48.379Z,4.30
2018-03-27T03:55:48.957Z,4.22
2018-03-27T03:56:49.529Z,4.10
2018-03-27T03:57:50.091Z,4.08
2018-03-27T03:58:50.658Z,3.98
2018-03-27T03:59:51.224Z,3.98
2018-03-27T04:00:51.791Z,3.88
2018-03-27T04:01:52.368Z,3.78
2018-03-27T04:02:52.946Z,3.84
2018-03-27T04:03:53.513Z,3.91
2018-03-27T04:04:54.079Z,3.94
2018-03-27T04:05:54.645Z,3.83
2018-03-27T04:06:55.223Z,3.77
2018-03-27T04:07:55.789Z,3.74
2018-03-27T04:08:56.367Z,3.78
2018-03-27T04:09:56.931Z,3.78
2018-03-27T04:10:57.497Z,3.78
2018-03-27T04:11:58.063Z,3.99
2018-03-27T04:12:58.641Z,3.96
2018-03-27T04:13:59.207Z,4.05
2018-03-27T04:14:59.786Z,3.88
2018-03-27T04:16:00.352Z,3.73
2018-03-27T04:17:00.919Z,3.60
2018-03-27T04:18:01.485Z,3.69
2018-03-27T04:19:02.054Z,3.74
2018-03-27T04:20:02.620Z,3.69
2018-03-27T04:21:03.186Z,3.65
2018-03-27T04:22:03.750Z,3.65
2018-03-27T04:23:04.318Z,3.68
2018-03-27T04:24:04.883Z,3.65
2018-03-27T04:25:05.461Z,3.66
2018-03-27T04:26:06.090Z,3.74
2018-03-27T04:27:06.602Z,3.80
2018-03-27T04:28:07.168Z,3.80
2018-03-27T04:29:07.733Z,3.80
2018-03-27T04:30:08.299Z,3.83
2018-03-27T04:31:08.867Z,3.66
2018-03-27T04:32:09.432Z,3.56
2018-03-27T04:33:09.998Z,3.45
2018-03-27T04:34:10.564Z,3.32
2018-03-27T04:35:11.140Z,3.41
2018-03-27T04:36:11.694Z,3.32
2018-03-27T04:37:12.264Z,3.41
2018-03-27T04:38:12.826Z,3.22
2018-03-27T04:39:13.392Z,3.18
2018-03-27T04:40:13.968Z,3.19
2018-03-27T04:41:14.525Z,3.18
2018-03-27T04:42:15.094Z,3.37
2018-03-27T04:43:15.660Z,3.21
2018-03-27T04:44:16.229Z,3.11
2018-03-27T04:45:16.802Z,3.34
2018-03-27T04:46:17.367Z,3.31
2018-03-27T04:47:17.931Z,3.34
2018-03-27T04:48:18.502Z,3.32
2018-03-27T04:49:19.062Z,3.32
2018-03-27T04:50:19.627Z,3.45
2018-03-27T04:51:20.193Z,3.26
2018-03-27T04:52:20.758Z,3.29
2018-03-27T04:53:21.323Z,3.32
2018-03-27T04:54:21.888Z,3.37
2018-03-27T04:55:22.454Z,3.44
2018-03-27T04:56:23.019Z,3.41
2018-03-27T04:57:23.584Z,3.51
2018-03-27T04:58:24.147Z,3.45
2018-03-27T04:59:24.717Z,3.31
2018-03-27T05:00:25.277Z,3.31
2018-03-27T05:01:25.844Z,3.36
2018-03-27T05:02:26.430Z,3.42
2018-03-27T05:03:26.975Z,3.47
2018-03-27T05:04:27.540Z,3.34
2018-03-27T05:05:28.107Z,3.42
2018-03-27T05:06:28.675Z,3.51
2018-03-27T05:07:29.242Z,3.45
2018-03-27T05:08:29.817Z,3.40
2018-03-27T05:09:30.383Z,3.36
2018-03-27T05:10:30.949Z,3.32
2018-03-27T05:11:31.514Z,3.14
2018-03-27T05:12:32.088Z,3.31
2018-03-27T05:13:32.645Z,3.41
2018-03-27T05:14:33.211Z,3.34
2018-03-27T05:15:33.779Z,3.31
2018-03-27T05:16:34.354Z,3.41
2018-03-27T05:17:34.921Z,3.36
2018-03-27T05:18:35.492Z,3.26
2018-03-27T05:19:36.051Z,3.36
2018-03-27T05:20:36.617Z,3.23
2018-03-27T05:21:37.183Z,3.18
2018-03-27T05:22:37.749Z,3.25
2018-03-27T05:23:38.313Z,3.25
2018-03-27T05:24:38.893Z,3.31
2018-03-27T05:25:39.462Z,3.32
2018-03-27T05:26:40.028Z,3.45
2018-03-27T05:27:40.594Z,3.44
2018-03-27T05:28:41.161Z,3.28
2018-03-27T05:29:41.739Z,3.45
2018-03-27T05:30:42.304Z,3.42
2018-03-27T05:31:42.872Z,3.37
2018-03-27T05:32:43.438Z,3.51
2018-03-27T05:33:44.020Z,3.62
2018-03-27T05:34:44.586Z,3.58
2018-03-27T05:35:45.154Z,3.62
2018-03-27T05:36:45.722Z,3.62
2018-03-27T05:37:46.287Z,3.70
2018-03-27T05:38:46.865Z,3.56
2018-03-27T05:39:47.435Z,3.55
2018-03-27T05:40:48.000Z,3.42
2018-03-27T05:41:48.568Z,3.50
2018-03-27T05:42:49.133Z,3.56
2018-03-27T05:43:49.700Z,3.53
2018-03-27T05:44:50.266Z,3.59
2018-03-27T05:45:50.833Z,3.51
2018-03-27T05:46:51.399Z,3.45
2018-03-27T05:47:51.967Z,3.47
2018-03-27T05:48:52.536Z,3.41
2018-03-27T05:49:53.104Z,3.58
2018-03-27T05:50:53.673Z,3.62
2018-03-27T05:51:54.240Z,3.80
2018-03-27T05:52:54.806Z,3.66
2018-03-27T05:53:55.376Z,3.68
2018-03-27T05:54:55.938Z,3.60
2018-03-27T05:55:56.520Z,3.55
2018-03-27T05:56:57.070Z,3.55
2018-03-27T05:57:57.639Z,3.44
2018-03-27T05:58:58.206Z,3.53
2018-03-27T05:59:58.774Z,3.60
2018-03-27T06:00:59.338Z,3.55
2018-03-27T06:01:59.907Z,3.53
2018-03-27T06:03:00.474Z,3.81
2018-03-27T06:04:01.042Z,3.80
2018-03-27T06:05:01.679Z,3.81
2018-03-27T06:06:02.181Z,3.76
2018-03-27T06:07:02.756Z,3.94
2018-03-27T06:08:03.323Z,4.04
2018-03-27T06:09:03.890Z,4.14
2018-03-27T06:10:04.458Z,4.17
2018-03-27T06:11:05.037Z,4.17
2018-03-27T06:12:05.607Z,4.17
2018-03-27T06:13:06.173Z,4.44
2018-03-27T06:14:06.753Z,4.45
2018-03-27T06:15:07.320Z,4.56
2018-03-27T06:16:07.889Z,4.52
2018-03-27T06:17:08.458Z,4.60
2018-03-27T06:18:09.029Z,4.66
2018-03-27T06:19:09.598Z,4.62
2018-03-27T06:20:10.168Z,4.66
2018-03-27T06:21:10.742Z,4.66
2018-03-27T06:22:11.305Z,4.80
2018-03-27T06:23:11.874Z,4.67
2018-03-27T06:24:12.445Z,4.75
2018-03-27T06:25:13.014Z,4.89
2018-03-27T06:26:13.583Z,4.90
2018-03-27T06:27:14.153Z,4.86
2018-03-27T06:28:14.724Z,4.99
2018-03-27T06:29:15.292Z,5.04
2018-03-27T06:30:15.862Z,5.02
2018-03-27T06:31:16.431Z,5.18
2018-03-27T06:32:17.012Z,5.20
2018-03-27T06:33:17.582Z,5.32
2018-03-27T06:34:18.150Z,5.38
2018-03-27T06:35:18.720Z,5.46
2018-03-27T06:36:19.290Z,5.53
2018-03-27T06:37:19.860Z,5.53
2018-03-27T06:38:20.429Z,5.62
2018-03-27T06:39:21.004Z,5.62
2018-03-27T06:40:21.566Z,5.61
2018-03-27T06:41:22.138Z,5.68
2018-03-27T06:42:22.709Z,5.72
2018-03-27T06:43:23.279Z,6.02
2018-03-27T06:44:23.850Z,5.72
2018-03-27T06:45:24.417Z,5.59
2018-03-27T06:46:24.988Z,5.71
2018-03-27T06:47:25.558Z,5.56
2018-03-27T06:48:26.126Z,7.05
2018-03-27T06:49:26.698Z,8.82
2018-03-27T06:50:27.265Z,7.73
2018-03-27T06:51:27.830Z,6.62
2018-03-27T06:52:28.400Z,6.27
2018-03-27T06:53:28.970Z,5.97
2018-03-27T06:54:29.538Z,5.91
2018-03-27T06:55:30.109Z,5.79
2018-03-27T06:56:30.678Z,5.80
2018-03-27T06:57:31.258Z,5.75
2018-03-27T06:58:31.829Z,5.59
2018-03-27T06:59:32.396Z,5.62
2018-03-27T07:00:32.965Z,5.65
2018-03-27T07:01:33.537Z,5.72
2018-03-27T07:02:34.106Z,5.71
2018-03-27T07:03:34.723Z,5.71
2018-03-27T07:04:35.257Z,5.71
2018-03-27T07:05:35.899Z,5.69
2018-03-27T07:06:36.427Z,5.56
2018-03-27T07:07:36.972Z,5.64
2018-03-27T07:08:37.546Z,5.62
2018-03-27T07:09:38.152Z,5.69
2018-03-27T07:10:38.698Z,5.57
2018-03-27T07:11:39.284Z,5.65
2018-03-27T07:12:39.851Z,5.51
2018-03-27T07:13:40.424Z,5.64
2018-03-27T07:14:41.014Z,5.59
2018-03-27T07:15:41.573Z,5.57
2018-03-27T07:16:42.121Z,5.56
2018-03-27T07:17:42.692Z,5.61
2018-03-27T07:18:43.262Z,5.57
2018-03-27T07:19:43.833Z,5.69
2018-03-27T07:20:44.433Z,5.75
2018-03-27T07:21:44.975Z,5.66
2018-03-27T07:22:45.545Z,5.69
2018-03-27T07:23:46.115Z,5.59
2018-03-27T07:24:46.685Z,5.73
2018-03-27T07:25:47.257Z,5.66
2018-03-27T07:26:47.826Z,5.75
2018-03-27T07:27:48.396Z,5.83
2018-03-27T07:28:48.966Z,5.83
2018-03-27T07:29:49.535Z,5.82
2018-03-27T07:30:50.108Z,5.87
2018-03-27T07:31:50.680Z,5.86
2018-03-27T07:32:51.248Z,5.82
2018-03-27T07:33:51.818Z,5.82
2018-03-27T07:34:52.388Z,5.79
2018-03-27T07:35:52.971Z,5.69
2018-03-27T07:36:53.553Z,5.72
2018-03-27T07:37:54.122Z,5.72
2018-03-27T07:38:54.691Z,5.64
2018-03-27T07:39:55.260Z,5.80
2018-03-27T07:40:55.830Z,5.75
2018-03-27T07:41:56.406Z,5.65
2018-03-27T07:42:56.969Z,5.71
2018-03-27T07:43:57.540Z,5.80
2018-03-27T07:44:58.109Z,5.86
2018-03-27T07:45:58.680Z,5.84
2018-03-27T07:46:59.251Z,5.83
2018-03-27T07:47:59.832Z,5.94
2018-03-27T07:49:00.402Z,5.94
2018-03-27T07:50:00.973Z,5.93
2018-03-27T07:51:01.542Z,5.90
2018-03-27T07:52:02.112Z,5.90
2018-03-27T07:53:02.681Z,5.91
2018-03-27T07:54:03.350Z,5.97
2018-03-27T07:55:03.920Z,5.90
2018-03-27T07:56:04.491Z,5.90
2018-03-27T07:57:05.061Z,5.91
2018-03-27T07:58:05.632Z,5.99
2018-03-27T07:59:06.203Z,5.94
2018-03-27T08:00:06.775Z,5.79
2018-03-27T08:01:07.340Z,5.90
2018-03-27T08:02:07.910Z,5.94
2018-03-27T08:03:08.492Z,6.07
2018-03-27T08:04:09.060Z,5.99
2018-03-27T08:05:09.632Z,5.87
2018-03-27T08:06:10.202Z,5.94
2018-03-27T08:07:10.775Z,6.16
2018-03-27T08:08:11.343Z,6.11
2018-03-27T08:09:11.912Z,6.14
2018-03-27T08:10:12.484Z,6.16
2018-03-27T08:11:13.102Z,6.09
2018-03-27T08:12:13.638Z,6.01
2018-03-27T08:13:14.205Z,6.12
2018-03-27T08:14:14.777Z,6.22
2018-03-27T08:15:15.347Z,6.19
2018-03-27T08:16:15.917Z,6.17
2018-03-27T08:17:16.486Z,6.26
2018-03-27T08:18:17.058Z,6.31
2018-03-27T08:19:17.629Z,6.30
2018-03-27T08:20:18.200Z,6.22
2018-03-27T08:21:18.769Z,6.41
2018-03-27T08:22:19.340Z,6.36
2018-03-27T08:23:19.910Z,6.46
2018-03-27T08:24:20.524Z,6.56
2018-03-27T08:25:21.051Z,6.54
2018-03-27T08:26:21.621Z,6.51
2018-03-27T08:27:22.191Z,6.62
2018-03-27T08:28:22.761Z,6.66
2018-03-27T08:29:23.381Z,6.57
2018-03-27T08:30:23.912Z,6.63
2018-03-27T08:31:24.481Z,6.70
2018-03-27T08:32:25.098Z,6.64
2018-03-27T08:33:25.625Z,6.69
2018-03-27T08:34:26.196Z,6.79
2018-03-27T08:35:26.766Z,6.77
2018-03-27T08:36:27.384Z,6.89
2018-03-27T08:37:27.909Z,6.84
2018-03-27T08:38:28.479Z,6.95
2018-03-27T08:39:29.063Z,6.95
2018-03-27T08:40:29.634Z,6.96
2018-03-27T08:41:30.217Z,6.93
2018-03-27T08:42:30.797Z,7.13
2018-03-27T08:43:31.397Z,7.23
2018-03-27T08:44:31.981Z,7.31
2018-03-27T08:45:32.564Z,7.29
2018-03-27T08:46:33.138Z,7.38
2018-03-27T08:47:33.716Z,7.38
2018-03-27T08:48:34.329Z,7.48
2018-03-27T08:49:34.886Z,7.43
2018-03-27T08:50:35.430Z,7.56
2018-03-27T08:51:36.001Z,7.58
2018-03-27T08:52:36.570Z,7.48
2018-03-27T08:53:37.143Z,7.51
2018-03-27T08:54:37.714Z,7.69
2018-03-27T08:55:38.296Z,7.72
2018-03-27T08:56:38.869Z,7.66
2018-03-27T08:57:39.443Z,7.63
2018-03-27T08:58:40.025Z,7.67
2018-03-27T08:59:40.597Z,7.70
2018-03-27T09:00:41.171Z,7.66
2018-03-27T09:01:41.761Z,7.72
2018-03-27T09:02:42.332Z,7.87
2018-03-27T09:03:42.939Z,7.90
2018-03-27T09:04:43.478Z,7.93
2018-03-27T09:05:44.045Z,8.12
2018-03-27T09:06:44.616Z,8.10
2018-03-27T09:07:45.187Z,8.19
2018-03-27T09:08:45.784Z,8.30
2018-03-27T09:09:46.355Z,8.19
2018-03-27T09:10:46.927Z,8.28
2018-03-27T09:11:47.498Z,8.20
2018-03-27T09:12:48.071Z,8.27
2018-03-27T09:13:48.642Z,8.48
2018-03-27T09:14:49.216Z,8.46
2018-03-27T09:15:49.786Z,8.46
2018-03-27T09:16:50.358Z,8.52
2018-03-27T09:17:50.932Z,8.53
2018-03-27T09:18:51.503Z,8.46
2018-03-27T09:19:52.076Z,8.56
2018-03-27T09:20:52.657Z,8.60
2018-03-27T09:21:53.227Z,8.81
2018-03-27T09:22:53.819Z,8.78
2018-03-27T09:23:54.390Z,8.82
2018-03-27T09:24:54.961Z,8.82
2018-03-27T09:25:55.533Z,8.87
2018-03-27T09:26:56.106Z,8.94
2018-03-27T09:27:56.677Z,9.10
2018-03-27T09:28:57.249Z,9.04
2018-03-27T09:29:57.821Z,9.04
2018-03-27T09:30:58.406Z,9.18
2018-03-27T09:31:58.974Z,9.18
2018-03-27T09:32:59.545Z,9.08
2018-03-27T09:34:00.118Z,9.13
2018-03-27T09:35:00.690Z,9.32
2018-03-27T09:36:01.265Z,9.28
2018-03-27T09:37:01.840Z,9.25
2018-03-27T09:38:02.420Z,9.26
2018-03-27T09:39:02.991Z,9.48
2018-03-27T09:40:03.562Z,9.56
2018-03-27T09:41:04.133Z,9.54
2018-03-27T09:42:04.705Z,9.69
2018-03-27T09:43:05.288Z,9.73
2018-03-27T09:44:05.851Z,9.68
2018-03-27T09:45:06.431Z,9.80
2018-03-27T09:46:06.996Z,9.62
2018-03-27T09:47:07.569Z,9.68
2018-03-27T09:48:08.143Z,9.86
2018-03-27T09:49:08.716Z,9.77
2018-03-27T09:50:09.287Z,9.91
2018-03-27T09:51:09.860Z,10.02
2018-03-27T09:52:10.434Z,10.12
2018-03-27T09:53:11.011Z,10.30
2018-03-27T09:54:11.595Z,10.26
2018-03-27T09:55:12.169Z,10.17
2018-03-27T09:56:12.753Z,10.22
2018-03-27T09:57:13.328Z,10.34
2018-03-27T09:58:13.902Z,10.37
2018-03-27T09:59:14.475Z,10.37
2018-03-27T10:00:15.050Z,10.31
2018-03-27T10:01:15.623Z,10.30
2018-03-27T10:02:16.197Z,10.13
2018-03-27T10:03:16.771Z,10.19
2018-03-27T10:04:17.344Z,10.25
2018-03-27T10:05:17.921Z,10.42
2018-03-27T10:06:18.492Z,10.51
2018-03-27T10:07:19.067Z,10.41
2018-03-27T10:08:19.641Z,10.53
2018-03-27T10:09:20.217Z,10.61
2018-03-27T10:10:20.791Z,10.61
2018-03-27T10:11:21.364Z,10.69
2018-03-27T10:12:21.939Z,10.46
2018-03-27T10:13:22.521Z,10.69
2018-03-27T10:14:23.088Z,10.79
2018-03-27T10:15:23.678Z,10.87
2018-03-27T10:16:24.248Z,10.87
2018-03-27T10:17:24.822Z,11.05
2018-03-27T10:18:25.395Z,11.14
2018-03-27T10:19:25.973Z,11.41
2018-03-27T10:20:26.547Z,11.17
2018-03-27T10:21:27.121Z,11.00
2018-03-27T10:22:27.697Z,10.96
2018-03-27T10:23:28.274Z,11.02
2018-03-27T10:24:28.847Z,11.14
2018-03-27T10:25:29.423Z,11.18
2018-03-27T10:26:29.997Z,11.04
2018-03-27T10:27:30.573Z,11.17
2018-03-27T10:28:31.147Z,11.19
2018-03-27T10:29:31.724Z,11.57
2018-03-27T10:30:32.298Z,11.77
2018-03-27T10:31:32.872Z,11.78
2018-03-27T10:32:33.447Z,11.72
2018-03-27T10:33:34.021Z,11.69
2018-03-27T10:34:34.597Z,11.65
2018-03-27T10:35:35.182Z,11.29
2018-03-27T10:36:35.759Z,11.32
2018-03-27T10:37:36.332Z,11.41
2018-03-27T10:38:36.960Z,11.33
2018-03-27T10:39:37.481Z,11.25
2018-03-27T10:40:38.056Z,11.27
2018-03-27T10:41:38.632Z,11.14
2018-03-27T10:42:39.206Z,11.26
2018-03-27T10:43:39.781Z,11.29
2018-03-27T10:44:40.357Z,11.33
2018-03-27T10:45:40.932Z,11.45
2018-03-27T10:46:41.506Z,11.48
2018-03-27T10:47:42.080Z,11.65
2018-03-27T10:48:42.656Z,11.66
2018-03-27T10:49:43.233Z,11.62
2018-03-27T10:50:43.810Z,11.59
2018-03-27T10:51:44.381Z,11.54
2018-03-27T10:52:44.957Z,11.43
2018-03-27T10:53:45.531Z,11.55
2018-03-27T10:54:46.116Z,11.62
2018-03-27T10:55:46.693Z,11.54
2018-03-27T10:56:47.268Z,11.59
2018-03-27T10:57:47.844Z,11.65
2018-03-27T10:58:48.418Z,11.18
2018-03-27T10:59:48.993Z,11.50
2018-03-27T11:00:49.569Z,11.66
2018-03-27T11:01:50.143Z,11.80
2018-03-27T11:02:50.718Z,11.87
2018-03-27T11:03:51.330Z,11.73
2018-03-27T11:04:51.870Z,11.84
2018-03-27T11:05:52.445Z,11.94
2018-03-27T11:06:53.022Z,12.10
2018-03-27T11:07:53.597Z,12.61
2018-03-27T11:08:54.172Z,12.93
2018-03-27T11:09:54.758Z,12.97
2018-03-27T11:10:55.347Z,12.70
2018-03-27T11:11:55.925Z,12.68
2018-03-27T11:12:56.496Z,12.57
2018-03-27T11:13:57.071Z,12.46
2018-03-27T11:14:57.649Z,12.55
2018-03-27T11:15:58.223Z,12.31
2018-03-27T11:16:58.797Z,12.58
2018-03-27T11:17:59.373Z,12.76
2018-03-27T11:18:59.951Z,12.70
2018-03-27T11:20:00.531Z,12.57
2018-03-27T11:21:01.104Z,12.67
2018-03-27T11:22:01.678Z,12.55
2018-03-27T11:23:02.254Z,12.94
2018-03-27T11:24:02.831Z,12.55
2018-03-27T11:25:03.406Z,12.68
2018-03-27T11:26:03.984Z,12.80
2018-03-27T11:27:04.557Z,12.80
2018-03-27T11:28:05.133Z,12.85
2018-03-27T11:29:05.708Z,12.85
2018-03-27T11:30:06.283Z,12.93
2018-03-27T11:31:06.861Z,12.86
2018-03-27T11:32:07.447Z,12.87
2018-03-27T11:33:08.024Z,12.85
2018-03-27T11:34:08.599Z,12.87
2018-03-27T11:35:09.175Z,12.93
2018-03-27T11:36:09.753Z,12.85
2018-03-27T11:37:10.339Z,13.08
2018-03-27T11:38:10.911Z,13.11
2018-03-27T11:39:11.486Z,12.91
2018-03-27T11:40:12.073Z,13.01
2018-03-27T11:41:12.649Z,12.85
2018-03-27T11:42:13.236Z,13.00
2018-03-27T11:43:13.811Z,13.09
2018-03-27T11:44:14.387Z,13.00
2018-03-27T11:45:14.969Z,13.01
2018-03-27T11:46:15.545Z,13.11
2018-03-27T11:47:16.115Z,13.01
2018-03-27T11:48:16.693Z,13.03
2018-03-27T11:49:17.271Z,13.20
2018-03-27T11:50:17.847Z,13.22
2018-03-27T11:51:18.424Z,13.15
2018-03-27T11:52:19.002Z,13.08
2018-03-27T11:53:19.578Z,13.16
2018-03-27T11:54:20.168Z,13.50
2018-03-27T11:55:20.745Z,13.53
2018-03-27T11:56:21.332Z,13.60
2018-03-27T11:57:21.909Z,13.54
2018-03-27T11:58:22.484Z,13.74
2018-03-27T11:59:23.065Z,13.65
2018-03-27T12:00:23.640Z,13.68
2018-03-27T12:01:24.217Z,13.67
2018-03-27T12:02:24.792Z,13.79
2018-03-27T12:03:25.370Z,13.50
2018-03-27T12:04:25.958Z,13.44
2018-03-27T12:05:26.532Z,13.37
2018-03-27T12:06:27.119Z,13.41
2018-03-27T12:07:27.730Z,13.46
2018-03-27T12:08:28.276Z,13.31
2018-03-27T12:09:28.863Z,13.42
2018-03-27T12:10:29.443Z,13.39
2018-03-27T12:11:30.017Z,13.39
2018-03-27T12:12:30.589Z,13.27
2018-03-27T12:13:31.166Z,13.12
2018-03-27T12:14:31.743Z,13.35
2018-03-27T12:15:32.318Z,13.22
2018-03-27T12:16:32.895Z,13.19
2018-03-27T12:17:33.470Z,13.20
2018-03-27T12:18:34.047Z,13.28
2018-03-27T12:19:34.625Z,13.08
2018-03-27T12:20:35.200Z,13.28
2018-03-27T12:21:35.776Z,13.33
2018-03-27T12:22:36.354Z,13.44
2018-03-27T12:23:36.932Z,13.47
2018-03-27T12:24:37.507Z,13.67
2018-03-27T12:25:38.084Z,13.50
2018-03-27T12:26:38.664Z,13.28
2018-03-27T12:27:39.237Z,13.16
2018-03-27T12:28:39.814Z,12.87
2018-03-27T12:29:40.394Z,12.86
2018-03-27T12:30:40.981Z,13.00
2018-03-27T12:31:41.647Z,12.82
2018-03-27T12:32:42.191Z,13.00
2018-03-27T12:33:42.772Z,12.87
2018-03-27T12:34:43.346Z,12.95
2018-03-27T12:35:43.921Z,13.04
2018-03-27T12:36:44.549Z,13.04
2018-03-27T12:37:45.123Z,12.93
2018-03-27T12:38:45.701Z,12.95
2018-03-27T12:39:46.276Z,13.05
2018-03-27T12:40:46.897Z,13.01
2018-03-27T12:41:47.475Z,12.91
2018-03-27T12:42:48.050Z,13.09
2018-03-27T12:43:48.626Z,13.11
2018-03-27T12:44:49.203Z,12.98
2018-03-27T12:45:49.777Z,12.95
2018-03-27T12:46:50.356Z,12.80
2018-03-27T12:47:50.930Z,12.86
2018-03-27T12:48:51.508Z,12.83
2018-03-27T12:49:52.088Z,12.78
2018-03-27T12:50:52.661Z,12.83
2018-03-27T12:51:53.235Z,12.93
2018-03-27T12:52:53.822Z,12.86
2018-03-27T12:53:54.396Z,12.65
2018-03-27T12:54:54.977Z,12.65
2018-03-27T12:55:55.559Z,12.70
2018-03-27T12:56:56.124Z,12.80
2018-03-27T12:57:56.701Z,12.97
2018-03-27T12:58:57.287Z,12.94
2018-03-27T12:59:57.875Z,13.01
2018-03-27T13:00:58.449Z,12.97
2018-03-27T13:01:59.030Z,13.03
2018-03-27T13:02:59.601Z,12.86
2018-03-27T13:04:00.176Z,13.09
2018-03-27T13:05:00.755Z,13.00
2018-03-27T13:06:01.329Z,13.09
2018-03-27T13:07:01.905Z,13.13
2018-03-27T13:08:02.486Z,12.83
2018-03-27T13:09:03.059Z,12.76
2018-03-27T13:10:03.638Z,12.68
2018-03-27T13:11:04.224Z,12.80
2018-03-27T13:12:04.800Z,12.93
2018-03-27T13:13:05.375Z,13.09
2018-03-27T13:14:05.951Z,12.94
2018-03-27T13:15:06.529Z,13.01
2018-03-27T13:16:07.106Z,12.86
2018-03-27T13:17:07.682Z,12.85
2018-03-27T13:18:08.260Z,12.85
2018-03-27T13:19:08.837Z,12.95